Time;durP1;ratioP1;P1;durP2;ratioP2;P2;SDS_P1;SDS_P2;PMS_P1;PMS_P2;Temp;Humidity;BMP_temperature;BMP_pressure;BME280_temperature;BME280_humidity;BME280_pressure;Samples;Min_cycle;Max_cycle;Signal;HPM_P1;HPM_P2
2022/09/03 00:00:09;;;;;;;32.03;16.17;;;;;;;19.65;42.79;100973.78;6307663;22;20069;-59
2022/09/03 00:03:02;;;;;;;27.67;13.80;;;;;;;19.65;42.65;100968.13;6307003;22;20371;-59
2022/09/03 00:05:33;;;;;;;;;;;;;;;19.83;41.79;100970.88;6306899;22;20481;-59
2022/09/03 00:08:02;;;;;;;18.88;9.70;;;;;;;19.52;42.97;100972.56;6307671;22;19906;-60
2022/09/03 00:10:36;;;;;;;15.98;8.18;;;;;;;19.44;43.19;100964.84;6306810;22;20054;-60
2022/09/03 00:13:08;;;;;;;15.07;7.10;;;;;;;19.40;43.35;100966.63;6307173;22;19999;-60
2022/09/03 00:15:38;;;;;;;12.60;6.30;;;;;;;19.33;43.80;100962.22;6306939;22;20058;-60
2022/09/03 00:18:15;;;;;;;12.98;5.90;;;;;;;19.33;43.95;100961.38;6306341;22;20010;-60
2022/09/03 00:20:43;;;;;;;8.95;5.55;;;;;;;19.26;44.34;100961.81;6307306;22;20014;-60
2022/09/03 00:23:15;;;;;;;12.00;5.28;;;;;;;19.18;44.46;100962.50;6307310;22;20446;-60
2022/09/03 00:25:53;;;;;;;8.30;4.65;;;;;;;19.25;43.91;100962.09;6306231;22;20007;-61
2022/09/03 00:28:26;;;;;;;9.35;5.32;;;;;;;19.16;44.18;100958.34;6307149;22;20011;-60
2022/09/03 00:31:15;;;;;;;7.28;4.75;;;;;;;19.20;43.90;100968.66;6306520;22;20011;-60
2022/09/03 00:33:43;;;;;;;6.07;4.72;;;;;;;19.14;44.41;100958.66;6306596;22;20018;-60
2022/09/03 00:36:42;;;;;;;10.70;4.63;;;;;;;19.22;43.72;100960.75;6306508;22;20031;-60
2022/09/03 00:39:13;;;;;;;6.78;4.28;;;;;;;19.01;44.64;100959.41;6222124;22;20010;-60
2022/09/03 00:41:58;;;;;;;10.85;4.43;;;;;;;19.13;44.08;100962.59;6307132;22;20007;-60
2022/09/03 00:44:41;;;;;;;9.38;4.45;;;;;;;19.02;44.01;100961.94;6306838;22;20086;-60
2022/09/03 00:47:38;;;;;;;6.70;4.20;;;;;;;19.08;44.05;100965.50;6305232;22;20007;-60
2022/09/03 00:50:33;;;;;;;7.28;4.03;;;;;;;18.95;44.66;100964.31;6306322;22;20007;-60
2022/09/03 00:53:06;;;;;;;6.15;4.20;;;;;;;18.89;44.61;100966.34;6306134;22;20435;-61
2022/09/03 00:55:43;;;;;;;;;;;;;;;19.21;43.33;100961.88;6307081;22;20003;-60
2022/09/03 00:58:20;;;;;;;9.00;4.25;;;;;;;18.88;44.83;100958.22;6306475;22;19910;-60
2022/09/03 01:00:46;;;;;;;5.50;3.65;;;;;;;18.87;44.82;100959.38;6306257;22;20010;-60
2022/09/03 01:03:17;;;;;;;7.65;4.32;;;;;;;18.79;44.84;100960.91;6306686;22;20003;-60
2022/09/03 01:06:07;;;;;;;6.40;4.28;;;;;;;18.88;44.33;100961.88;6306556;22;20030;-60
2022/09/03 01:08:58;;;;;;;6.15;3.95;;;;;;;18.79;44.69;100946.03;6305847;22;20011;-60
2022/09/03 01:11:44;;;;;;;6.63;4.45;;;;;;;18.73;44.99;100959.31;6306623;22;20002;-60
2022/09/03 01:14:25;;;;;;;9.13;4.53;;;;;;;18.71;44.85;100947.56;6306100;22;20366;-60
2022/09/03 01:16:58;;;;;;;8.35;4.18;;;;;;;18.65;45.30;100948.72;6307542;22;20366;-60
2022/09/03 01:20:16;;;;;;;8.60;4.07;;;;;;;18.71;44.84;100946.72;6306715;22;20061;-60
2022/09/03 01:23:02;;;;;;;11.93;3.83;;;;;;;18.67;44.84;100942.78;6300871;22;20015;-59
2022/09/03 01:25:46;;;;;;;8.48;4.13;;;;;;;18.60;44.91;100954.44;6307224;22;20007;-59
2022/09/03 01:28:41;;;;;;;8.18;3.53;;;;;;;18.56;44.68;100951.41;6305258;22;20134;-60
2022/09/03 01:31:13;;;;;;;5.97;3.42;;;;;;;18.55;45.31;100958.16;6284658;22;20007;-60
2022/09/03 01:34:00;;;;;;;8.13;3.53;;;;;;;18.50;45.24;100951.78;6307406;22;20007;-60
2022/09/03 01:36:40;;;;;;;6.18;4.10;;;;;;;18.43;45.36;100960.59;6305000;22;20014;-60
2022/09/03 01:39:16;;;;;;;5.13;3.80;;;;;;;18.43;45.64;100949.34;6306209;22;20010;-60
2022/09/03 01:42:18;;;;;;;8.30;3.90;;;;;;;18.45;45.30;100955.50;6305629;22;20086;-60
2022/09/03 01:45:27;;;;;;;6.47;3.50;;;;;;;18.53;44.83;100949.19;6305672;22;20007;-60
2022/09/03 01:48:30;;;;;;;6.72;3.75;;;;;;;18.44;45.30;100951.03;6151591;23;20052;-60
2022/09/03 01:51:23;;;;;;;7.60;3.88;;;;;;;18.43;45.36;100954.13;6151066;23;20014;-60
2022/09/03 01:54:22;;;;;;;5.90;3.67;;;;;;;18.43;45.09;100954.97;6296527;22;20011;-60
2022/09/03 01:57:06;;;;;;;6.15;3.88;;;;;;;18.30;45.43;100947.28;6305535;22;20427;-60
2022/09/03 01:59:51;;;;;;;6.68;3.65;;;;;;;18.36;45.34;100955.34;6305764;22;20003;-60
2022/09/03 02:02:23;;;;;;;6.05;4.18;;;;;;;18.27;45.27;100962.75;6305727;22;20015;-60
2022/09/03 02:05:05;;;;;;;7.47;3.90;;;;;;;18.32;44.93;100959.91;6305759;22;20007;-60
2022/09/03 02:07:33;;;;;;;7.38;3.80;;;;;;;18.23;45.10;100966.47;6305696;22;20015;-60
2022/09/03 02:10:00;;;;;;;5.38;3.25;;;;;;;18.16;45.60;100961.25;6307136;22;20006;-60
2022/09/03 02:12:31;;;;;;;6.80;3.80;;;;;;;18.20;45.79;100955.88;6306193;22;20017;-60
2022/09/03 02:14:57;;;;;;;7.85;4.07;;;;;;;18.16;45.66;100947.22;6306922;22;20002;-60
2022/09/03 02:17:25;;;;;;;7.13;3.70;;;;;;;18.13;45.92;100947.81;6304912;22;20000;-60
2022/09/03 02:19:50;;;;;;;5.13;3.67;;;;;;;18.06;45.87;100944.53;6305686;22;20094;-60
2022/09/03 02:22:16;;;;;;;7.70;4.07;;;;;;;18.11;45.74;100950.06;6305925;22;20030;-60
2022/09/03 02:24:41;;;;;;;7.65;4.13;;;;;;;18.05;45.97;100946.50;6304947;22;20014;-59
2022/09/03 02:27:06;;;;;;;6.90;3.67;;;;;;;18.08;46.05;100945.06;6305517;22;20015;-60
2022/09/03 02:29:32;;;;;;;6.22;4.07;;;;;;;18.03;45.82;100950.75;6305625;22;20000;-59
2022/09/03 02:31:57;;;;;;;8.20;3.95;;;;;;;17.99;45.96;100955.28;6305207;22;20038;-60
2022/09/03 02:34:23;;;;;;;6.82;3.90;;;;;;;17.98;46.05;100957.25;6306583;22;19999;-59
2022/09/03 02:36:48;;;;;;;5.05;3.88;;;;;;;17.98;46.09;100948.00;6307003;22;19999;-59
2022/09/03 02:39:15;;;;;;;8.18;4.45;;;;;;;17.96;46.29;100950.25;6305428;22;20311;-59
2022/09/03 02:41:41;;;;;;;8.80;4.25;;;;;;;17.92;46.51;100952.88;6306376;22;20011;-60
2022/09/03 02:44:27;;;;;;;5.80;4.18;;;;;;;17.94;46.08;100952.56;6305523;22;20381;-60
2022/09/03 02:47:01;;;;;;;6.82;4.60;;;;;;;17.84;46.46;100948.75;6304368;22;20022;-58
2022/09/03 02:49:27;;;;;;;8.32;4.47;;;;;;;17.80;46.82;100952.44;6304859;22;20018;-59
2022/09/03 02:51:59;;;;;;;5.18;3.85;;;;;;;17.76;47.26;100943.75;6304941;22;19999;-60
2022/09/03 02:54:25;;;;;;;7.22;4.30;;;;;;;17.79;46.55;100948.78;6306005;22;20356;-60
2022/09/03 02:56:50;;;;;;;7.20;4.28;;;;;;;17.76;47.37;100946.56;6305807;22;20125;-60
2022/09/03 02:59:16;;;;;;;5.75;4.15;;;;;;;17.75;47.26;100947.72;6304217;22;19999;-60
2022/09/03 03:01:42;;;;;;;11.77;4.40;;;;;;;17.74;47.08;100945.19;6305600;22;20026;-60
2022/09/03 03:04:07;;;;;;;7.15;3.97;;;;;;;17.77;46.98;100945.47;6305241;22;20011;-60
2022/09/03 03:06:32;;;;;;;6.97;4.35;;;;;;;17.74;46.56;100940.41;6304627;22;20031;-60
2022/09/03 03:08:58;;;;;;;9.20;4.30;;;;;;;17.73;46.84;100947.16;6305731;22;20007;-59
2022/09/03 03:11:25;;;;;;;7.63;4.47;;;;;;;17.74;46.56;100950.81;6305417;22;20003;-60
2022/09/03 03:13:50;;;;;;;7.57;4.20;;;;;;;17.64;46.86;100954.53;6306435;22;20052;-59
2022/09/03 03:16:16;;;;;;;8.90;4.57;;;;;;;17.63;46.82;100950.91;6308902;22;20086;-60
2022/09/03 03:18:44;;;;;;;6.63;4.00;;;;;;;17.63;47.06;100941.66;6307705;22;20031;-60
2022/09/03 03:21:11;;;;;;;4.47;3.80;;;;;;;17.58;47.42;100959.38;6307049;22;20007;-59
2022/09/03 03:23:38;;;;;;;6.57;4.20;;;;;;;17.53;47.62;100941.78;6307519;22;20097;-59
2022/09/03 03:26:05;;;;;;;10.20;3.88;;;;;;;17.53;47.46;100947.41;6307493;22;20018;-59
2022/09/03 03:28:33;;;;;;;5.80;3.85;;;;;;;17.56;47.85;100955.19;6306117;22;20003;-60
2022/09/03 03:31:12;;;;;;;6.57;3.78;;;;;;;17.62;47.27;100948.41;6307661;22;20003;-60
2022/09/03 03:33:38;;;;;;;6.20;3.63;;;;;;;17.51;47.77;100947.69;6307450;22;20019;-60
2022/09/03 03:36:06;;;;;;;8.57;3.88;;;;;;;17.50;47.57;100943.22;6306887;22;20137;-60
2022/09/03 03:38:32;;;;;;;6.38;3.50;;;;;;;17.51;47.47;100939.25;6306750;22;20010;-60
2022/09/03 03:40:57;;;;;;;7.32;3.42;;;;;;;17.54;47.33;100943.44;6307554;22;20125;-60
2022/09/03 03:43:22;;;;;;;5.15;3.40;;;;;;;17.53;46.86;100941.78;6306819;22;20011;-60
2022/09/03 03:45:57;;;;;;;4.15;3.28;;;;;;;17.54;47.19;100943.44;6307423;22;20440;-60
2022/09/03 03:48:26;;;;;;;8.25;3.70;;;;;;;17.53;47.32;100941.78;6306267;22;20033;-60
2022/09/03 03:50:52;;;;;;;8.98;3.60;;;;;;;17.47;47.20;100955.03;6308182;22;20007;-60
2022/09/03 03:53:17;;;;;;;4.65;3.40;;;;;;;17.45;47.36;100950.81;6307322;22;20078;-60
2022/09/03 03:55:43;;;;;;;5.55;3.30;;;;;;;17.46;46.80;100944.09;6306757;22;20323;-60
2022/09/03 03:58:08;;;;;;;5.90;3.33;;;;;;;17.39;47.43;100955.66;6307475;22;20022;-60
2022/09/03 04:00:38;;;;;;;6.93;3.38;;;;;;;17.37;46.96;100960.72;6306162;22;20014;-60
2022/09/03 04:03:03;;;;;;;4.90;3.17;;;;;;;17.39;47.24;100950.88;6306701;22;20003;-60
2022/09/03 04:05:29;;;;;;;5.57;3.63;;;;;;;17.39;47.45;100947.25;6307165;22;20018;-60
2022/09/03 04:07:54;;;;;;;6.22;3.30;;;;;;;17.43;47.37;100953.94;6307058;22;19995;-60
2022/09/03 04:10:20;;;;;;;5.60;3.17;;;;;;;17.35;47.82;100952.63;6306277;22;20015;-60
2022/09/03 04:12:45;;;;;;;9.40;3.65;;;;;;;17.30;47.61;100952.69;6307934;22;20004;-60
2022/09/03 04:15:10;;;;;;;4.35;2.92;;;;;;;17.35;47.66;100951.78;6307037;22;20003;-60
2022/09/03 04:17:36;;;;;;;7.35;3.33;;;;;;;17.32;47.92;100956.00;6306631;22;19999;-60
2022/09/03 04:20:02;;;;;;;6.78;3.38;;;;;;;17.36;47.19;100945.88;6306788;22;20026;-60
2022/09/03 04:22:28;;;;;;;7.53;3.40;;;;;;;17.38;47.08;100940.81;6308227;22;20030;-60
2022/09/03 04:24:53;;;;;;;9.15;3.17;;;;;;;17.42;46.92;100946.66;6306036;22;20011;-60
2022/09/03 04:27:19;;;;;;;8.52;3.20;;;;;;;17.38;46.96;100945.59;6307390;22;20007;-60
2022/09/03 04:29:44;;;;;;;4.75;2.97;;;;;;;17.40;46.73;100944.13;6306737;22;20085;-60
2022/09/03 04:34:54;;;;;;;5.30;3.20;;;;;;;17.39;46.63;100948.09;6306315;22;20022;-60
2022/09/03 04:37:19;;;;;;;6.25;3.08;;;;;;;17.43;46.72;100940.75;6305632;22;20003;-60
2022/09/03 04:39:44;;;;;;;5.20;3.03;;;;;;;17.46;45.98;100933.72;6306563;22;20308;-60
2022/09/03 04:42:10;;;;;;;6.70;3.22;;;;;;;17.38;46.58;100934.38;6306870;22;20007;-59
2022/09/03 04:44:37;;;;;;;7.78;3.50;;;;;;;17.45;46.17;100942.41;6306176;22;20430;-60
2022/09/03 04:47:03;;;;;;;6.18;3.20;;;;;;;17.39;46.79;100942.47;6306957;22;20019;-60
2022/09/03 04:49:29;;;;;;;5.10;3.10;;;;;;;17.34;47.29;100950.94;6305585;22;20580;-60
2022/09/03 04:51:57;;;;;;;5.55;3.05;;;;;;;17.39;46.77;100947.25;6306074;22;20007;-60
2022/09/03 04:54:23;;;;;;;8.50;3.30;;;;;;;17.34;47.12;100945.34;6307129;22;20402;-60
2022/09/03 04:56:48;;;;;;;3.92;3.15;;;;;;;17.26;47.69;100956.38;6307137;22;20019;-60
2022/09/03 04:59:14;;;;;;;3.92;3.05;;;;;;;17.34;47.52;100956.56;6305580;22;20011;-60
2022/09/03 05:01:39;;;;;;;5.13;3.10;;;;;;;17.34;47.31;100942.53;6307297;22;20035;-60
2022/09/03 05:04:06;;;;;;;8.75;3.67;;;;;;;17.28;47.13;100952.13;6306742;22;20014;-60
2022/09/03 05:06:32;;;;;;;9.02;3.15;;;;;;;17.30;47.31;100951.84;6304650;22;20092;-60
2022/09/03 05:08:58;;;;;;;6.45;3.67;;;;;;;17.27;48.06;100950.44;6306514;22;19999;-61
2022/09/03 05:11:25;;;;;;;5.28;3.42;;;;;;;17.26;48.05;100957.22;6306251;22;19999;-61
2022/09/03 05:13:53;;;;;;;8.43;3.65;;;;;;;17.26;48.22;100951.59;6305176;22;20039;-60
2022/09/03 05:16:18;;;;;;;7.85;3.22;;;;;;;17.23;48.56;100948.53;6306735;22;20430;-61
2022/09/03 05:18:45;;;;;;;5.00;3.15;;;;;;;17.21;48.30;100950.78;6306667;22;20004;-60
2022/09/03 05:21:13;;;;;;;7.35;3.40;;;;;;;17.20;48.41;100954.72;6305699;22;20007;-60
2022/09/03 05:23:41;;;;;;;7.20;3.35;;;;;;;17.24;47.35;100945.44;6305779;22;19999;-58
2022/09/03 05:26:09;;;;;;;6.07;3.10;;;;;;;17.18;47.35;100941.84;6306206;22;20082;-59
2022/09/03 05:28:36;;;;;;;5.20;2.80;;;;;;;17.23;46.92;100948.53;6305144;22;20038;-59
2022/09/03 05:31:05;;;;;;;4.80;3.30;;;;;;;17.22;48.03;100947.72;6305106;22;20074;-59
2022/09/03 05:33:42;;;;;;;6.38;3.53;;;;;;;17.26;47.81;100948.78;6305162;22;20368;-59
2022/09/03 05:36:10;;;;;;;5.25;3.22;;;;;;;17.20;48.57;100947.16;6305738;22;19995;-59
2022/09/03 05:38:35;;;;;;;8.20;3.65;;;;;;;17.26;47.28;100948.78;6306312;22;20007;-59
2022/09/03 05:41:04;;;;;;;5.15;3.17;;;;;;;17.23;48.09;100949.38;6305405;22;19999;-59
2022/09/03 05:43:30;;;;;;;5.22;3.33;;;;;;;17.25;48.44;100947.13;6305300;22;20011;-59
2022/09/03 05:46:03;;;;;;;8.43;3.85;;;;;;;17.29;48.01;100948.22;6306481;22;20050;-59
2022/09/03 05:48:29;;;;;;;6.80;3.47;;;;;;;17.24;48.44;100953.84;6305011;22;20003;-60
2022/09/03 05:51:09;;;;;;;5.07;3.22;;;;;;;17.31;48.15;100950.69;6306329;22;20030;-59
2022/09/03 05:53:37;;;;;;;6.68;3.55;;;;;;;17.30;47.51;100955.47;6306461;22;20029;-60
2022/09/03 05:56:15;;;;;;;7.55;3.20;;;;;;;17.34;48.10;100945.34;6305904;22;20109;-60
2022/09/03 05:58:45;;;;;;;6.32;3.25;;;;;;;17.38;49.39;100945.59;6306590;22;20057;-59
2022/09/03 06:01:13;;;;;;;4.75;3.50;;;;;;;17.39;48.24;100952.88;6305832;22;20304;-59
2022/09/03 06:03:39;;;;;;;5.57;3.00;;;;;;;17.44;47.69;100950.00;6304821;22;20004;-60
2022/09/03 06:06:05;;;;;;;7.63;3.63;;;;;;;17.46;47.29;100947.75;6304278;22;20007;-60
2022/09/03 06:08:31;;;;;;;7.55;4.00;;;;;;;17.47;47.31;100945.78;6306347;22;19999;-60
2022/09/03 06:10:58;;;;;;;6.53;4.13;;;;;;;17.52;47.66;100951.31;6304788;22;20056;-60
2022/09/03 06:13:23;;;;;;;6.30;3.75;;;;;;;17.63;47.25;100947.25;6305409;22;20011;-58
2022/09/03 06:15:49;;;;;;;6.80;3.88;;;;;;;17.65;46.85;100945.84;6305208;22;20014;-58
2022/09/03 06:18:14;;;;;;;7.50;4.18;;;;;;;17.65;46.57;100945.00;6305242;22;20007;-58
2022/09/03 06:20:39;;;;;;;7.85;4.22;;;;;;;17.67;47.27;100943.56;6305455;22;20366;-60
2022/09/03 06:23:04;;;;;;;8.50;4.75;;;;;;;17.68;47.02;100947.19;6305088;22;20082;-60
2022/09/03 06:25:30;;;;;;;8.05;4.00;;;;;;;17.71;46.85;100942.97;6305261;22;20497;-60
2022/09/03 06:27:56;;;;;;;7.78;4.80;;;;;;;17.72;47.74;100947.44;6306317;22;20006;-60
2022/09/03 06:30:22;;;;;;;7.57;4.50;;;;;;;17.73;47.19;100947.16;6305200;22;20309;-60
2022/09/03 06:32:52;;;;;;;7.75;4.75;;;;;;;17.85;46.78;100955.19;6305530;22;20007;-59
2022/09/03 06:35:17;;;;;;;11.30;4.88;;;;;;;17.89;46.56;100948.66;6305132;22;20423;-60
2022/09/03 06:37:43;;;;;;;11.25;4.95;;;;;;;17.99;46.88;100952.47;6305240;22;20013;-59
2022/09/03 06:40:12;;;;;;;4.78;3.40;;;;;;;18.19;50.23;100954.19;6305510;22;20007;-60
2022/09/03 06:42:41;;;;;;;6.10;3.05;;;;;;;18.47;50.25;100952.38;6305596;22;20331;-60
2022/09/03 06:45:08;;;;;;;5.38;3.22;;;;;;;18.69;50.52;100958.22;6305012;22;20335;-60
2022/09/03 06:47:33;;;;;;;6.35;3.40;;;;;;;18.85;50.67;100956.84;6306486;22;20118;-60
2022/09/03 06:50:00;;;;;;;8.82;3.60;;;;;;;18.97;49.98;100956.38;6307745;22;20503;-61
2022/09/03 06:52:26;;;;;;;10.02;5.22;;;;;;;18.95;47.27;100953.06;6307839;22;20073;-60
2022/09/03 06:54:51;;;;;;;9.25;4.20;;;;;;;19.08;48.74;100951.44;6307771;22;19999;-60
2022/09/03 06:57:17;;;;;;;7.97;4.25;;;;;;;19.18;48.65;100948.44;6308215;22;20477;-60
2022/09/03 06:59:42;;;;;;;10.45;4.15;;;;;;;19.25;48.01;100948.84;6307347;22;20018;-60
2022/09/03 07:02:08;;;;;;;12.90;5.80;;;;;;;19.19;46.80;100952.09;6307850;22;20423;-60
2022/09/03 07:04:33;;;;;;;9.85;5.55;;;;;;;19.23;46.34;100951.16;6306102;22;20089;-60
2022/09/03 07:06:59;;;;;;;6.85;3.80;;;;;;;19.44;47.16;100950.78;6306883;22;20011;-60
2022/09/03 07:09:25;;;;;;;10.13;4.82;;;;;;;19.58;47.33;100960.09;6307648;22;20004;-60
2022/09/03 07:11:51;;;;;;;10.27;4.90;;;;;;;19.58;46.50;100963.72;6307871;22;20045;-60
2022/09/03 07:14:18;;;;;;;10.32;4.78;;;;;;;19.69;46.53;100953.16;6306473;22;20027;-60
2022/09/03 07:16:44;;;;;;;7.60;4.78;;;;;;;19.83;46.25;100953.97;6307312;22;20003;-60
2022/09/03 07:19:12;;;;;;;9.13;5.00;;;;;;;19.91;45.59;100957.19;6307652;22;20007;-60
2022/09/03 07:21:40;;;;;;;9.80;5.30;;;;;;;19.92;45.11;100964.50;6307826;22;20327;-60
2022/09/03 07:24:06;;;;;;;8.30;4.50;;;;;;;20.07;45.00;100955.72;6307086;22;20014;-60
2022/09/03 07:26:37;;;;;;;7.15;4.25;;;;;;;20.17;45.30;100954.69;6306934;22;20007;-60
2022/09/03 07:29:04;;;;;;;8.38;3.88;;;;;;;20.18;43.88;100956.34;6307383;22;20022;-60
2022/09/03 07:31:32;;;;;;;7.43;3.80;;;;;;;20.25;43.02;100963.22;6307697;22;20006;-60
2022/09/03 07:34:06;;;;;;;7.13;4.22;;;;;;;20.32;43.71;100960.81;6306924;22;20003;-60
2022/09/03 07:36:37;;;;;;;7.35;3.72;;;;;;;20.33;43.17;100956.84;6308170;22;20010;-60
2022/09/03 07:39:03;;;;;;;6.38;3.33;;;;;;;20.42;43.75;100954.09;6307139;22;20070;-60
2022/09/03 07:41:32;;;;;;;5.40;3.05;;;;;;;20.38;43.67;100958.72;6304995;22;20383;-60
2022/09/03 07:43:58;;;;;;;6.20;3.42;;;;;;;20.49;44.16;100968.63;6306828;22;20007;-61
2022/09/03 07:46:25;;;;;;;5.90;3.15;;;;;;;20.50;44.03;100961.00;6306027;22;20011;-60
2022/09/03 07:48:56;;;;;;;8.15;3.40;;;;;;;20.65;43.56;100963.47;6305756;22;20011;-60
2022/09/03 07:51:25;;;;;;;7.70;3.17;;;;;;;20.80;43.43;100954.66;6307454;22;19999;-60
2022/09/03 07:53:56;;;;;;;5.40;2.75;;;;;;;20.88;42.60;100961.50;6307295;22;20011;-61
2022/09/03 07:56:21;;;;;;;4.97;2.63;;;;;;;20.91;42.51;100969.34;6306287;22;20007;-59
2022/09/03 07:58:46;;;;;;;9.85;2.92;;;;;;;21.02;42.73;100950.16;6306918;22;20010;-59
2022/09/03 08:01:16;;;;;;;9.55;2.83;;;;;;;21.15;42.04;100960.56;6305751;22;20010;-59
2022/09/03 08:03:44;;;;;;;3.65;2.17;;;;;;;21.26;42.26;100967.59;6308154;22;20080;-59
2022/09/03 08:06:10;;;;;;;5.97;2.45;;;;;;;21.33;41.42;100967.97;6308261;22;19999;-60
2022/09/03 08:08:36;;;;;;;5.45;2.40;;;;;;;21.36;41.35;100965.69;6306433;22;20026;-60
2022/09/03 08:11:13;;;;;;;4.95;2.53;;;;;;;21.52;41.52;100969.75;6306873;22;20046;-60
2022/09/03 08:13:41;;;;;;;5.88;2.30;;;;;;;21.60;41.07;100966.13;6307130;22;20003;-60
2022/09/03 08:16:07;;;;;;;6.93;2.17;;;;;;;21.59;40.75;100964.47;6305887;22;20003;-60
2022/09/03 08:18:37;;;;;;;5.63;2.40;;;;;;;21.77;41.03;100963.41;6306728;22;20009;-60
2022/09/03 08:21:07;;;;;;;4.32;2.17;;;;;;;21.89;40.91;100971.28;6307493;22;20327;-60
2022/09/03 08:23:41;;;;;;;7.72;2.50;;;;;;;21.95;40.58;100971.94;6305828;22;20010;-60
2022/09/03 08:26:07;;;;;;;3.55;1.88;;;;;;;21.97;40.43;100981.78;6307099;22;20350;-61
2022/09/03 08:28:33;;;;;;;5.40;2.30;;;;;;;22.11;40.74;100970.31;6306231;22;20138;-62
2022/09/03 08:31:13;;;;;;;4.65;2.22;;;;;;;22.16;40.48;100970.19;6306126;22;20006;-61
2022/09/03 08:33:44;;;;;;;3.90;1.70;;;;;;;22.25;39.63;100970.25;6306753;22;20007;-60
2022/09/03 08:36:14;;;;;;;5.50;2.10;;;;;;;22.29;38.90;100972.06;6307703;22;20049;-61
2022/09/03 08:38:42;;;;;;;3.55;1.60;;;;;;;22.30;39.03;100970.91;6305740;22;20004;-59
2022/09/03 08:41:15;;;;;;;4.78;1.80;;;;;;;22.43;39.42;100974.75;6306614;22;20082;-59
2022/09/03 08:43:53;;;;;;;6.10;2.00;;;;;;;22.47;39.36;100986.25;6305118;22;20010;-59
2022/09/03 08:46:22;;;;;;;2.05;1.50;;;;;;;22.56;38.82;100981.44;6306572;22;20018;-60
2022/09/03 08:48:48;;;;;;;3.95;1.70;;;;;;;22.65;38.46;100984.28;6306391;22;20004;-60
2022/09/03 08:51:16;;;;;;;6.65;1.80;;;;;;;22.66;38.71;100974.63;6306211;22;20010;-60
2022/09/03 08:53:48;;;;;;;3.83;2.10;;;;;;;22.82;39.23;100978.59;6306123;22;20041;-59
2022/09/03 08:56:20;;;;;;;4.45;1.58;;;;;;;22.95;38.74;100976.81;6306656;22;20007;-59
2022/09/03 08:58:45;;;;;;;3.05;1.42;;;;;;;22.98;38.12;100971.31;6305491;22;20007;-58
2022/09/03 09:01:33;;;;;;;3.25;1.70;;;;;;;23.04;38.97;100972.00;6306369;22;20427;-59
2022/09/03 09:04:20;;;;;;;2.53;1.40;;;;;;;23.15;38.23;100973.31;6306379;22;20011;-60
2022/09/03 09:06:51;;;;;;;4.22;1.58;;;;;;;23.24;37.64;100978.94;6305572;22;20003;-60
2022/09/03 09:09:37;;;;;;;3.95;1.70;;;;;;;23.24;38.08;100974.13;6306455;22;20423;-60
2022/09/03 09:12:17;;;;;;;3.22;1.40;;;;;;;23.32;37.80;100978.09;6305340;22;20436;-60
2022/09/03 09:14:57;;;;;;;2.90;1.60;;;;;;;23.44;38.23;100977.41;6305086;22;20014;-60
2022/09/03 09:17:31;;;;;;;5.03;1.40;;;;;;;23.40;36.71;100987.75;6304170;22;20553;-60
2022/09/03 09:20:11;;;;;;;3.13;1.70;;;;;;;23.44;36.79;100983.91;6305614;22;20034;-60
2022/09/03 09:22:45;;;;;;;2.80;1.70;;;;;;;23.51;36.95;100980.56;6306261;22;20015;-60
2022/09/03 09:25:14;;;;;;;7.00;1.83;;;;;;;23.61;36.19;100979.34;6305439;22;20012;-60
2022/09/03 09:28:15;;;;;;;3.88;1.40;;;;;;;23.62;36.88;100986.69;6306061;22;20007;-60
2022/09/03 09:30:41;;;;;;;4.78;1.50;;;;;;;23.66;36.22;100984.88;6305987;22;20430;-60
2022/09/03 09:33:06;;;;;;;3.05;1.60;;;;;;;23.69;35.94;100975.69;6305096;22;20376;-60
2022/09/03 09:35:32;;;;;;;4.65;1.60;;;;;;;23.71;35.78;100977.03;6306770;22;20034;-61
2022/09/03 09:37:59;;;;;;;3.75;1.40;;;;;;;23.80;35.46;100964.81;6305785;22;20106;-60
2022/09/03 09:40:38;;;;;;;2.70;1.60;;;;;;;23.85;35.26;100975.94;6305242;22;19996;-61
2022/09/03 09:43:15;;;;;;;5.53;1.40;;;;;;;23.89;35.49;100971.25;6305879;22;20003;-60
2022/09/03 09:45:43;;;;;;;3.65;1.60;;;;;;;23.91;35.20;100968.94;6306131;22;20439;-60
2022/09/03 09:48:14;;;;;;;4.00;1.70;;;;;;;23.96;35.99;100977.25;6305158;22;20078;-60
2022/09/03 09:50:40;;;;;;;3.03;1.60;;;;;;;24.01;35.16;100979.88;6306556;22;20427;-60
2022/09/03 09:53:16;;;;;;;5.05;1.75;;;;;;;24.05;35.66;100980.88;6306485;22;20229;-60
2022/09/03 09:55:56;;;;;;;5.15;1.48;;;;;;;24.08;35.51;100976.53;6305543;22;20014;-61
2022/09/03 09:58:24;;;;;;;4.28;1.67;;;;;;;24.20;36.13;100977.44;6306381;22;19999;-60
2022/09/03 10:01:20;;;;;;;5.60;1.50;;;;;;;24.27;35.66;100985.41;6305551;22;20007;-60
2022/09/03 10:03:55;;;;;;;3.63;1.50;;;;;;;24.26;34.63;100972.41;6306608;22;20003;-60
2022/09/03 10:09:18;;;;;;;3.72;1.50;;;;;;;24.28;35.18;100972.88;6305746;22;20014;-60
2022/09/03 10:12:13;;;;;;;3.90;1.80;;;;;;;24.28;35.26;100972.88;6306468;22;20007;-60
2022/09/03 10:14:44;;;;;;;6.47;1.63;;;;;;;24.34;35.26;100962.19;6306267;22;20014;-60
2022/09/03 10:17:17;;;;;;;4.03;1.58;;;;;;;24.47;35.04;100966.78;6306337;22;20003;-60
2022/09/03 10:22:53;;;;;;;3.75;1.60;;;;;;;24.51;35.09;100962.09;6304830;22;20129;-60
2022/09/03 10:25:20;;;;;;;;;;;;;;;24.56;35.92;100959.03;6305847;22;20034;-60
2022/09/03 10:27:45;;;;;;;5.78;1.67;;;;;;;24.56;35.05;100964.72;6305906;22;20323;-60
2022/09/03 10:30:14;;;;;;;5.28;1.60;;;;;;;24.70;34.87;100967.28;6304048;22;20011;-60
2022/09/03 10:33:06;;;;;;;3.03;1.30;;;;;;;24.70;35.03;100962.44;6305843;22;20004;-60
2022/09/03 10:35:40;;;;;;;2.53;1.83;;;;;;;24.70;34.95;100951.09;6284789;22;20038;-60
2022/09/03 10:38:32;;;;;;;6.03;1.77;;;;;;;24.73;35.10;100958.94;6304831;22;20091;-60
2022/09/03 10:41:14;;;;;;;5.93;1.60;;;;;;;24.85;34.71;100957.31;6305635;22;20000;-60
2022/09/03 10:44:11;;;;;;;4.57;1.80;;;;;;;24.89;34.30;100958.28;6304203;22;20438;-59
2022/09/03 10:46:45;;;;;;;5.00;1.55;;;;;;;24.93;34.15;100959.25;6305518;22;20021;-59
2022/09/03 10:49:36;;;;;;;4.50;1.33;;;;;;;24.99;34.80;100966.38;6304988;22;20011;-60
2022/09/03 10:52:01;;;;;;;4.00;1.70;;;;;;;24.97;33.32;100960.22;6305250;22;20003;-58
2022/09/03 10:54:42;;;;;;;3.85;1.55;;;;;;;24.95;33.96;100962.56;6304421;22;20086;-60
2022/09/03 10:57:26;;;;;;;3.95;1.65;;;;;;;25.03;33.47;100947.44;6304853;22;20003;-60
2022/09/03 11:00:14;;;;;;;5.20;1.60;;;;;;;25.03;34.20;100952.31;6306062;22;20003;-60
2022/09/03 11:03:06;;;;;;;4.07;1.80;;;;;;;25.06;34.53;100960.97;6304218;22;20003;-60
2022/09/03 11:05:47;;;;;;;4.40;1.48;;;;;;;25.13;34.75;100960.44;6304922;22;20015;-60
2022/09/03 11:08:20;;;;;;;2.85;1.75;;;;;;;25.17;33.85;100958.56;6305301;22;20141;-59
2022/09/03 11:10:51;;;;;;;3.50;1.42;;;;;;;25.19;33.33;100962.72;6305215;22;20134;-59
2022/09/03 11:13:24;;;;;;;6.28;1.63;;;;;;;25.24;33.36;100952.31;6305413;22;20014;-59
2022/09/03 11:16:00;;;;;;;4.40;1.33;;;;;;;25.31;33.67;100956.25;6305276;22;20057;-59
2022/09/03 11:18:29;;;;;;;4.47;1.45;;;;;;;25.28;33.86;100954.09;6303876;22;20318;-59
2022/09/03 11:21:00;;;;;;;2.58;1.80;;;;;;;25.32;33.66;100960.75;6304511;22;19999;-59
2022/09/03 11:23:28;;;;;;;6.33;1.70;;;;;;;25.41;33.54;100952.13;6305918;22;20014;-59
2022/09/03 11:26:00;;;;;;;2.08;1.42;;;;;;;25.51;33.57;100946.00;6303975;22;20006;-60
2022/09/03 11:28:25;;;;;;;;;;;;;;;25.43;34.39;100946.94;6306489;22;20011;-58
2022/09/03 11:31:16;;;;;;;3.55;1.85;;;;;;;25.50;33.59;100952.00;6306005;22;19922;-59
2022/09/03 11:33:56;;;;;;;3.78;1.77;;;;;;;25.54;32.91;100947.28;6305943;22;20015;-59
2022/09/03 11:36:31;;;;;;;5.05;1.40;;;;;;;25.59;33.51;100953.59;6307424;22;20128;-58
2022/09/03 11:38:56;;;;;;;2.35;1.55;;;;;;;25.56;33.94;100942.91;6307650;22;20121;-60
2022/09/03 11:41:26;;;;;;;4.20;1.50;;;;;;;25.60;32.65;100938.19;6305643;22;20384;-59
2022/09/03 11:43:52;;;;;;;4.88;1.65;;;;;;;25.57;32.94;100940.91;6307846;22;20011;-59
2022/09/03 11:46:20;;;;;;;4.40;1.80;;;;;;;25.54;32.54;100936.72;6286054;22;20007;-59
2022/09/03 11:48:48;;;;;;;3.63;1.60;;;;;;;25.57;32.48;100938.06;6276343;22;20038;-59
2022/09/03 11:51:36;;;;;;;2.72;1.52;;;;;;;25.56;33.93;100936.41;6276439;22;20424;-59
2022/09/03 11:54:14;;;;;;;3.65;1.70;;;;;;;25.52;33.14;100936.28;6277566;22;20031;-59